sensor_id;sensor_type;location;lat;lon;timestamp;temperature;humidity
4673;DHT22;61885;53.560;9.940;2023-04-02T00:00:17;1.90;99.90
4673;DHT22;61885;53.560;9.940;2023-04-02T00:02:58;1.90;99.90
4673;DHT22;61885;53.560;9.940;2023-04-02T00:05:41;1.90;99.90
4673;DHT22;61885;53.560;9.940;2023-04-02T00:08:34;1.90;99.90
4673;DHT22;61885;53.560;9.940;2023-04-02T00:11:08;1.90;99.90
4673;DHT22;61885;53.560;9.940;2023-04-02T00:13:42;1.90;99.90
4673;DHT22;61885;53.560;9.940;2023-04-02T00:16:22;1.80;99.90
4673;DHT22;61885;53.560;9.940;2023-04-02T00:18:57;1.80;99.90
4673;DHT22;61885;53.560;9.940;2023-04-02T00:21:33;1.80;99.90
4673;DHT22;61885;53.560;9.940;2023-04-02T00:24:12;1.80;99.90
4673;DHT22;61885;53.560;9.940;2023-04-02T00:26:45;1.70;99.90
4673;DHT22;61885;53.560;9.940;2023-04-02T00:29:17;1.80;99.90
4673;DHT22;61885;53.560;9.940;2023-04-02T00:31:48;1.70;99.90
4673;DHT22;61885;53.560;9.940;2023-04-02T00:34:21;1.70;99.90
4673;DHT22;61885;53.560;9.940;2023-04-02T00:36:55;1.70;99.90
4673;DHT22;61885;53.560;9.940;2023-04-02T00:39:27;1.70;99.90
4673;DHT22;61885;53.560;9.940;2023-04-02T00:41:58;1.80;99.90
4673;DHT22;61885;53.560;9.940;2023-04-02T00:44:37;1.80;99.90
4673;DHT22;61885;53.560;9.940;2023-04-02T00:47:14;1.70;99.90
4673;DHT22;61885;53.560;9.940;2023-04-02T00:49:48;1.80;99.90
4673;DHT22;61885;53.560;9.940;2023-04-02T00:52:25;1.70;99.90
4673;DHT22;61885;53.560;9.940;2023-04-02T00:55:02;1.70;99.90
4673;DHT22;61885;53.560;9.940;2023-04-02T00:57:33;1.70;99.90
4673;DHT22;61885;53.560;9.940;2023-04-02T01:00:18;1.80;99.90
4673;DHT22;61885;53.560;9.940;2023-04-02T01:03:13;1.70;99.90
4673;DHT22;61885;53.560;9.940;2023-04-02T01:05:59;1.70;99.90
4673;DHT22;61885;53.560;9.940;2023-04-02T01:08:57;1.80;99.90
4673;DHT22;61885;53.560;9.940;2023-04-02T01:11:36;1.90;99.90
4673;DHT22;61885;53.560;9.940;2023-04-02T01:14:16;1.90;99.90
4673;DHT22;61885;53.560;9.940;2023-04-02T01:16:53;1.80;99.90
4673;DHT22;61885;53.560;9.940;2023-04-02T01:19:46;1.80;99.90
4673;DHT22;61885;53.560;9.940;2023-04-02T01:22:22;1.80;99.90
4673;DHT22;61885;53.560;9.940;2023-04-02T01:25:04;1.70;99.90
4673;DHT22;61885;53.560;9.940;2023-04-02T01:27:39;1.70;99.90
4673;DHT22;61885;53.560;9.940;2023-04-02T01:30:13;1.70;99.90
4673;DHT22;61885;53.560;9.940;2023-04-02T01:32:44;1.80;99.90
4673;DHT22;61885;53.560;9.940;2023-04-02T01:35:13;1.80;99.90
4673;DHT22;61885;53.560;9.940;2023-04-02T01:37:48;1.70;99.90
4673;DHT22;61885;53.560;9.940;2023-04-02T01:40:30;1.70;99.90
4673;DHT22;61885;53.560;9.940;2023-04-02T01:43:11;1.80;99.90
4673;DHT22;61885;53.560;9.940;2023-04-02T01:45:46;1.80;99.90
4673;DHT22;61885;53.560;9.940;2023-04-02T01:48:17;1.90;99.90
4673;DHT22;61885;53.560;9.940;2023-04-02T01:50:51;2.00;99.90
4673;DHT22;61885;53.560;9.940;2023-04-02T01:53:25;2.00;99.90
4673;DHT22;61885;53.560;9.940;2023-04-02T01:56:00;1.90;99.90
4673;DHT22;61885;53.560;9.940;2023-04-02T01:58:31;2.00;99.90
4673;DHT22;61885;53.560;9.940;2023-04-02T02:01:05;2.00;99.90
4673;DHT22;61885;53.560;9.940;2023-04-02T02:03:42;2.00;99.90
4673;DHT22;61885;53.560;9.940;2023-04-02T02:06:14;1.90;99.90
4673;DHT22;61885;53.560;9.940;2023-04-02T02:08:47;1.90;99.90
4673;DHT22;61885;53.560;9.940;2023-04-02T02:11:22;1.80;99.90
4673;DHT22;61885;53.560;9.940;2023-04-02T02:13:55;1.80;99.90
4673;DHT22;61885;53.560;9.940;2023-04-02T02:16:29;1.90;99.90
4673;DHT22;61885;53.560;9.940;2023-04-02T02:19:01;1.90;99.90
4673;DHT22;61885;53.560;9.940;2023-04-02T02:21:37;1.90;99.90
4673;DHT22;61885;53.560;9.940;2023-04-02T02:24:17;1.80;99.90
4673;DHT22;61885;53.560;9.940;2023-04-02T02:27:06;1.80;99.90
4673;DHT22;61885;53.560;9.940;2023-04-02T02:29:46;1.80;99.90
4673;DHT22;61885;53.560;9.940;2023-04-02T02:32:27;1.90;99.90
4673;DHT22;61885;53.560;9.940;2023-04-02T02:35:01;1.90;99.90
4673;DHT22;61885;53.560;9.940;2023-04-02T02:37:38;1.80;99.90
4673;DHT22;61885;53.560;9.940;2023-04-02T02:40:12;1.80;99.90
4673;DHT22;61885;53.560;9.940;2023-04-02T02:42:48;1.70;99.90
4673;DHT22;61885;53.560;9.940;2023-04-02T02:45:23;1.60;99.90
4673;DHT22;61885;53.560;9.940;2023-04-02T02:47:56;1.70;99.90
4673;DHT22;61885;53.560;9.940;2023-04-02T02:50:29;1.60;99.90
4673;DHT22;61885;53.560;9.940;2023-04-02T02:53:07;1.60;99.90
4673;DHT22;61885;53.560;9.940;2023-04-02T02:55:42;1.60;99.90
4673;DHT22;61885;53.560;9.940;2023-04-02T02:58:15;1.50;99.90
4673;DHT22;61885;53.560;9.940;2023-04-02T03:00:48;1.50;99.90
4673;DHT22;61885;53.560;9.940;2023-04-02T03:03:23;1.50;99.90
4673;DHT22;61885;53.560;9.940;2023-04-02T03:05:58;1.60;99.90
4673;DHT22;61885;53.560;9.940;2023-04-02T03:08:34;1.60;99.90
4673;DHT22;61885;53.560;9.940;2023-04-02T03:11:09;1.60;99.90
4673;DHT22;61885;53.560;9.940;2023-04-02T03:13:44;1.60;99.90
4673;DHT22;61885;53.560;9.940;2023-04-02T03:16:19;1.60;99.90
4673;DHT22;61885;53.560;9.940;2023-04-02T03:18:55;1.60;99.90
4673;DHT22;61885;53.560;9.940;2023-04-02T03:21:32;1.50;99.90
4673;DHT22;61885;53.560;9.940;2023-04-02T03:24:08;1.40;99.90
4673;DHT22;61885;53.560;9.940;2023-04-02T03:26:43;1.50;99.90
4673;DHT22;61885;53.560;9.940;2023-04-02T03:29:16;1.40;99.90
4673;DHT22;61885;53.560;9.940;2023-04-02T03:31:52;1.40;99.90
4673;DHT22;61885;53.560;9.940;2023-04-02T03:34:28;1.40;99.90
4673;DHT22;61885;53.560;9.940;2023-04-02T03:37:04;1.50;99.90
4673;DHT22;61885;53.560;9.940;2023-04-02T03:39:39;1.50;99.90
4673;DHT22;61885;53.560;9.940;2023-04-02T03:42:14;1.40;99.90
4673;DHT22;61885;53.560;9.940;2023-04-02T03:44:49;1.40;99.90
4673;DHT22;61885;53.560;9.940;2023-04-02T03:47:27;1.40;99.90
4673;DHT22;61885;53.560;9.940;2023-04-02T03:50:05;1.40;99.90
4673;DHT22;61885;53.560;9.940;2023-04-02T03:52:36;1.50;99.90
4673;DHT22;61885;53.560;9.940;2023-04-02T03:55:11;1.50;99.90
4673;DHT22;61885;53.560;9.940;2023-04-02T03:57:47;1.50;99.90
4673;DHT22;61885;53.560;9.940;2023-04-02T04:00:23;1.50;99.90
4673;DHT22;61885;53.560;9.940;2023-04-02T04:03:01;1.50;99.90
4673;DHT22;61885;53.560;9.940;2023-04-02T04:05:38;1.50;99.90
4673;DHT22;61885;53.560;9.940;2023-04-02T04:08:15;1.50;99.90
4673;DHT22;61885;53.560;9.940;2023-04-02T04:10:50;1.50;99.90
4673;DHT22;61885;53.560;9.940;2023-04-02T04:13:28;1.50;99.90
4673;DHT22;61885;53.560;9.940;2023-04-02T04:16:01;1.50;99.90
4673;DHT22;61885;53.560;9.940;2023-04-02T04:18:36;1.50;99.90
4673;DHT22;61885;53.560;9.940;2023-04-02T04:21:16;1.40;99.90
4673;DHT22;61885;53.560;9.940;2023-04-02T04:23:49;1.50;99.90
4673;DHT22;61885;53.560;9.940;2023-04-02T04:26:22;1.40;99.90
4673;DHT22;61885;53.560;9.940;2023-04-02T04:29:08;1.40;99.90
4673;DHT22;61885;53.560;9.940;2023-04-02T04:31:44;1.40;99.90
4673;DHT22;61885;53.560;9.940;2023-04-02T04:34:18;1.40;99.90
4673;DHT22;61885;53.560;9.940;2023-04-02T04:36:55;1.40;99.90
4673;DHT22;61885;53.560;9.940;2023-04-02T04:39:40;1.40;99.90
4673;DHT22;61885;53.560;9.940;2023-04-02T04:42:16;1.40;99.90
4673;DHT22;61885;53.560;9.940;2023-04-02T04:44:53;1.50;99.90
4673;DHT22;61885;53.560;9.940;2023-04-02T04:47:27;1.50;99.90
4673;DHT22;61885;53.560;9.940;2023-04-02T04:50:02;1.60;99.90
4673;DHT22;61885;53.560;9.940;2023-04-02T04:52:39;1.60;99.90
4673;DHT22;61885;53.560;9.940;2023-04-02T04:55:25;1.60;99.90
4673;DHT22;61885;53.560;9.940;2023-04-02T04:57:58;1.60;99.90
4673;DHT22;61885;53.560;9.940;2023-04-02T05:00:37;1.70;99.90
4673;DHT22;61885;53.560;9.940;2023-04-02T05:03:14;1.70;99.90
4673;DHT22;61885;53.560;9.940;2023-04-02T05:05:48;1.70;99.90
4673;DHT22;61885;53.560;9.940;2023-04-02T05:08:25;1.80;99.90
4673;DHT22;61885;53.560;9.940;2023-04-02T05:10:59;1.90;99.90
4673;DHT22;61885;53.560;9.940;2023-04-02T05:13:34;2.00;99.90
4673;DHT22;61885;53.560;9.940;2023-04-02T05:16:12;2.10;99.90
4673;DHT22;61885;53.560;9.940;2023-04-02T05:18:51;2.10;99.90
4673;DHT22;61885;53.560;9.940;2023-04-02T05:21:25;2.10;99.90
4673;DHT22;61885;53.560;9.940;2023-04-02T05:24:26;2.20;99.90
4673;DHT22;61885;53.560;9.940;2023-04-02T05:27:00;2.20;99.90
4673;DHT22;61885;53.560;9.940;2023-04-02T05:29:33;2.20;99.90
4673;DHT22;61885;53.560;9.940;2023-04-02T05:32:09;2.20;99.90
4673;DHT22;61885;53.560;9.940;2023-04-02T05:34:41;2.30;99.90
4673;DHT22;61885;53.560;9.940;2023-04-02T05:37:15;2.30;99.90
4673;DHT22;61885;53.560;9.940;2023-04-02T05:39:54;2.30;99.90
4673;DHT22;61885;53.560;9.940;2023-04-02T05:42:27;2.50;99.90
4673;DHT22;61885;53.560;9.940;2023-04-02T05:45:07;2.50;99.90
4673;DHT22;61885;53.560;9.940;2023-04-02T05:47:46;2.50;99.90
4673;DHT22;61885;53.560;9.940;2023-04-02T05:50:23;2.60;99.90
4673;DHT22;61885;53.560;9.940;2023-04-02T05:53:01;2.50;99.90
4673;DHT22;61885;53.560;9.940;2023-04-02T05:55:55;2.60;99.90
4673;DHT22;61885;53.560;9.940;2023-04-02T05:58:34;2.60;99.90
4673;DHT22;61885;53.560;9.940;2023-04-02T06:01:16;2.60;99.90
4673;DHT22;61885;53.560;9.940;2023-04-02T06:03:54;2.60;99.90
4673;DHT22;61885;53.560;9.940;2023-04-02T06:06:49;2.80;99.90
4673;DHT22;61885;53.560;9.940;2023-04-02T06:09:26;2.70;99.90
4673;DHT22;61885;53.560;9.940;2023-04-02T06:12:12;2.70;99.90
4673;DHT22;61885;53.560;9.940;2023-04-02T06:14:49;2.70;99.90
4673;DHT22;61885;53.560;9.940;2023-04-02T06:17:20;2.70;99.90
4673;DHT22;61885;53.560;9.940;2023-04-02T06:19:56;2.80;99.90
4673;DHT22;61885;53.560;9.940;2023-04-02T06:22:33;2.90;99.90
4673;DHT22;61885;53.560;9.940;2023-04-02T06:25:08;2.90;99.80
4673;DHT22;61885;53.560;9.940;2023-04-02T06:27:48;3.00;99.10
4673;DHT22;61885;53.560;9.940;2023-04-02T06:30:23;3.00;97.80
4673;DHT22;61885;53.560;9.940;2023-04-02T06:32:54;3.10;98.60
4673;DHT22;61885;53.560;9.940;2023-04-02T06:35:28;3.00;98.20
4673;DHT22;61885;53.560;9.940;2023-04-02T06:38:01;3.10;97.80
4673;DHT22;61885;53.560;9.940;2023-04-02T06:40:40;3.10;97.70
4673;DHT22;61885;53.560;9.940;2023-04-02T06:43:17;3.10;96.20
4673;DHT22;61885;53.560;9.940;2023-04-02T06:45:53;3.20;96.70
4673;DHT22;61885;53.560;9.940;2023-04-02T06:48:27;3.20;96.50
4673;DHT22;61885;53.560;9.940;2023-04-02T06:51:06;3.20;96.20
4673;DHT22;61885;53.560;9.940;2023-04-02T06:53:43;3.20;96.90
4673;DHT22;61885;53.560;9.940;2023-04-02T06:56:22;3.20;96.60
4673;DHT22;61885;53.560;9.940;2023-04-02T06:58:57;3.20;96.80
4673;DHT22;61885;53.560;9.940;2023-04-02T07:01:34;3.30;96.00
4673;DHT22;61885;53.560;9.940;2023-04-02T07:04:04;3.40;95.10
4673;DHT22;61885;53.560;9.940;2023-04-02T07:06:37;3.50;94.70
4673;DHT22;61885;53.560;9.940;2023-04-02T07:09:10;3.50;92.20
4673;DHT22;61885;53.560;9.940;2023-04-02T07:11:40;3.60;91.60
4673;DHT22;61885;53.560;9.940;2023-04-02T07:14:13;3.60;91.40
4673;DHT22;61885;53.560;9.940;2023-04-02T07:16:43;3.70;88.90
4673;DHT22;61885;53.560;9.940;2023-04-02T07:19:17;3.70;89.00
4673;DHT22;61885;53.560;9.940;2023-04-02T07:21:48;3.70;79.00
4673;DHT22;61885;53.560;9.940;2023-04-02T07:24:18;3.80;80.70
4673;DHT22;61885;53.560;9.940;2023-04-02T07:26:49;3.80;76.90
4673;DHT22;61885;53.560;9.940;2023-04-02T07:29:23;3.90;76.10
4673;DHT22;61885;53.560;9.940;2023-04-02T07:31:58;4.00;75.00
4673;DHT22;61885;53.560;9.940;2023-04-02T07:34:29;4.50;73.10
4673;DHT22;61885;53.560;9.940;2023-04-02T07:37:01;4.70;55.10
4673;DHT22;61885;53.560;9.940;2023-04-02T07:39:33;5.10;48.40
4673;DHT22;61885;53.560;9.940;2023-04-02T07:42:08;5.10;44.10
4673;DHT22;61885;53.560;9.940;2023-04-02T07:44:41;4.80;41.00
4673;DHT22;61885;53.560;9.940;2023-04-02T07:47:13;4.00;43.60
4673;DHT22;61885;53.560;9.940;2023-04-02T07:49:43;4.40;45.00
4673;DHT22;61885;53.560;9.940;2023-04-02T07:52:13;4.40;45.00
4673;DHT22;61885;53.560;9.940;2023-04-02T07:54:43;4.40;45.60
4673;DHT22;61885;53.560;9.940;2023-04-02T07:57:13;4.50;44.00
4673;DHT22;61885;53.560;9.940;2023-04-02T07:59:45;4.60;44.40
4673;DHT22;61885;53.560;9.940;2023-04-02T08:02:21;4.60;42.00
4673;DHT22;61885;53.560;9.940;2023-04-02T08:04:51;4.80;46.70
4673;DHT22;61885;53.560;9.940;2023-04-02T08:07:20;4.90;44.50
4673;DHT22;61885;53.560;9.940;2023-04-02T08:09:50;5.00;37.30
4673;DHT22;61885;53.560;9.940;2023-04-02T08:12:21;5.00;35.00
4673;DHT22;61885;53.560;9.940;2023-04-02T08:14:53;5.10;37.60
4673;DHT22;61885;53.560;9.940;2023-04-02T08:17:23;5.30;33.30
4673;DHT22;61885;53.560;9.940;2023-04-02T08:19:56;5.40;35.40
4673;DHT22;61885;53.560;9.940;2023-04-02T08:22:27;5.50;26.90
4673;DHT22;61885;53.560;9.940;2023-04-02T08:24:58;5.60;27.00
4673;DHT22;61885;53.560;9.940;2023-04-02T08:27:28;5.60;24.50
4673;DHT22;61885;53.560;9.940;2023-04-02T08:30:00;5.70;22.30
4673;DHT22;61885;53.560;9.940;2023-04-02T08:32:32;5.80;22.60
4673;DHT22;61885;53.560;9.940;2023-04-02T08:35:02;5.80;23.00
4673;DHT22;61885;53.560;9.940;2023-04-02T08:37:35;5.90;22.30
4673;DHT22;61885;53.560;9.940;2023-04-02T08:40:06;5.80;23.10
4673;DHT22;61885;53.560;9.940;2023-04-02T08:42:39;6.00;24.80
4673;DHT22;61885;53.560;9.940;2023-04-02T08:45:21;6.10;23.60
4673;DHT22;61885;53.560;9.940;2023-04-02T08:47:53;6.00;21.90
4673;DHT22;61885;53.560;9.940;2023-04-02T08:50:30;5.80;20.30
4673;DHT22;61885;53.560;9.940;2023-04-02T08:53:03;5.70;17.60
4673;DHT22;61885;53.560;9.940;2023-04-02T08:55:36;5.60;14.70
4673;DHT22;61885;53.560;9.940;2023-04-02T08:58:16;5.60;10.90
4673;DHT22;61885;53.560;9.940;2023-04-02T09:00:54;5.70;11.40
4673;DHT22;61885;53.560;9.940;2023-04-02T09:03:27;5.80;10.60
4673;DHT22;61885;53.560;9.940;2023-04-02T09:06:00;6.00;12.80
4673;DHT22;61885;53.560;9.940;2023-04-02T09:08:31;6.10;13.80
4673;DHT22;61885;53.560;9.940;2023-04-02T09:11:05;6.20;11.00
4673;DHT22;61885;53.560;9.940;2023-04-02T09:13:42;6.40;10.20
4673;DHT22;61885;53.560;9.940;2023-04-02T09:16:18;6.40;8.50
4673;DHT22;61885;53.560;9.940;2023-04-02T09:18:53;6.40;7.20
4673;DHT22;61885;53.560;9.940;2023-04-02T09:21:33;6.50;10.00
4673;DHT22;61885;53.560;9.940;2023-04-02T09:24:08;6.30;2.50
4673;DHT22;61885;53.560;9.940;2023-04-02T09:26:41;6.40;8.80
4673;DHT22;61885;53.560;9.940;2023-04-02T09:29:27;6.40;3.00
4673;DHT22;61885;53.560;9.940;2023-04-02T09:35:07;6.60;4.70
4673;DHT22;61885;53.560;9.940;2023-04-02T09:37:38;6.50;3.60
4673;DHT22;61885;53.560;9.940;2023-04-02T09:40:23;6.50;2.60
4673;DHT22;61885;53.560;9.940;2023-04-02T09:43:13;6.40;3.20
4673;DHT22;61885;53.560;9.940;2023-04-02T09:45:44;6.40;5.50
4673;DHT22;61885;53.560;9.940;2023-04-02T09:48:28;6.50;5.20
4673;DHT22;61885;53.560;9.940;2023-04-02T09:51:13;6.50;2.30
4673;DHT22;61885;53.560;9.940;2023-04-02T09:53:45;6.50;5.20
4673;DHT22;61885;53.560;9.940;2023-04-02T09:56:16;6.60;6.10
4673;DHT22;61885;53.560;9.940;2023-04-02T09:59:05;6.70;6.10
4673;DHT22;61885;53.560;9.940;2023-04-02T10:01:37;6.80;4.40
4673;DHT22;61885;53.560;9.940;2023-04-02T10:04:35;6.80;3.30
4673;DHT22;61885;53.560;9.940;2023-04-02T10:07:32;6.80;3.80
4673;DHT22;61885;53.560;9.940;2023-04-02T10:10:16;6.70;3.60
4673;DHT22;61885;53.560;9.940;2023-04-02T10:12:50;6.60;1.40
4673;DHT22;61885;53.560;9.940;2023-04-02T10:15:28;6.60;10.70
4673;DHT22;61885;53.560;9.940;2023-04-02T10:18:06;6.50;1.00
4673;DHT22;61885;53.560;9.940;2023-04-02T10:20:59;6.50;1.00
4673;DHT22;61885;53.560;9.940;2023-04-02T10:23:32;6.70;1.00
4673;DHT22;61885;53.560;9.940;2023-04-02T10:26:14;6.70;1.00
4673;DHT22;61885;53.560;9.940;2023-04-02T10:29:06;6.70;1.00
4673;DHT22;61885;53.560;9.940;2023-04-02T10:31:46;6.90;1.00
4673;DHT22;61885;53.560;9.940;2023-04-02T10:34:24;6.90;1.00
4673;DHT22;61885;53.560;9.940;2023-04-02T10:37:06;6.90;1.00
4673;DHT22;61885;53.560;9.940;2023-04-02T10:39:46;6.90;1.00
4673;DHT22;61885;53.560;9.940;2023-04-02T10:42:28;6.90;1.00
4673;DHT22;61885;53.560;9.940;2023-04-02T10:45:05;7.10;1.00
4673;DHT22;61885;53.560;9.940;2023-04-02T10:47:50;7.10;1.00
4673;DHT22;61885;53.560;9.940;2023-04-02T10:50:31;7.00;1.00
4673;DHT22;61885;53.560;9.940;2023-04-02T10:53:10;7.10;1.00
4673;DHT22;61885;53.560;9.940;2023-04-02T10:55:45;7.10;1.00
4673;DHT22;61885;53.560;9.940;2023-04-02T10:58:22;7.10;1.00
4673;DHT22;61885;53.560;9.940;2023-04-02T11:00:55;7.20;1.00
4673;DHT22;61885;53.560;9.940;2023-04-02T11:03:33;7.20;1.00
4673;DHT22;61885;53.560;9.940;2023-04-02T11:06:13;7.20;1.00
4673;DHT22;61885;53.560;9.940;2023-04-02T11:08:50;7.10;1.00
4673;DHT22;61885;53.560;9.940;2023-04-02T11:11:22;7.10;1.00
4673;DHT22;61885;53.560;9.940;2023-04-02T11:13:55;7.20;1.00
4673;DHT22;61885;53.560;9.940;2023-04-02T11:16:26;7.30;1.00
4673;DHT22;61885;53.560;9.940;2023-04-02T11:19:22;7.20;1.00
4673;DHT22;61885;53.560;9.940;2023-04-02T11:21:53;7.20;1.00
4673;DHT22;61885;53.560;9.940;2023-04-02T11:24:34;7.30;1.00
4673;DHT22;61885;53.560;9.940;2023-04-02T11:27:11;7.40;1.00
4673;DHT22;61885;53.560;9.940;2023-04-02T11:29:44;7.40;1.00
4673;DHT22;61885;53.560;9.940;2023-04-02T11:32:35;7.40;1.00
4673;DHT22;61885;53.560;9.940;2023-04-02T11:35:24;7.40;1.00
4673;DHT22;61885;53.560;9.940;2023-04-02T11:38:00;7.40;1.00
4673;DHT22;61885;53.560;9.940;2023-04-02T11:40:48;7.40;1.00
4673;DHT22;61885;53.560;9.940;2023-04-02T11:43:51;7.40;1.00
4673;DHT22;61885;53.560;9.940;2023-04-02T11:46:41;7.30;1.00
4673;DHT22;61885;53.560;9.940;2023-04-02T11:49:34;7.50;1.00
4673;DHT22;61885;53.560;9.940;2023-04-02T11:52:19;7.70;1.00
4673;DHT22;61885;53.560;9.940;2023-04-02T11:54:59;7.70;1.00
4673;DHT22;61885;53.560;9.940;2023-04-02T11:57:54;7.70;1.00
4673;DHT22;61885;53.560;9.940;2023-04-02T12:03:47;7.80;1.00
4673;DHT22;61885;53.560;9.940;2023-04-02T12:06:26;7.60;1.00
4673;DHT22;61885;53.560;9.940;2023-04-02T12:09:14;7.60;1.00
4673;DHT22;61885;53.560;9.940;2023-04-02T12:11:47;7.90;1.00
4673;DHT22;61885;53.560;9.940;2023-04-02T12:14:45;7.90;1.00
4673;DHT22;61885;53.560;9.940;2023-04-02T12:17:23;7.90;1.00
4673;DHT22;61885;53.560;9.940;2023-04-02T12:19:57;8.00;1.00
4673;DHT22;61885;53.560;9.940;2023-04-02T12:22:29;8.00;1.00
4673;DHT22;61885;53.560;9.940;2023-04-02T12:25:03;8.40;1.00
4673;DHT22;61885;53.560;9.940;2023-04-02T12:27:33;9.40;1.00
4673;DHT22;61885;53.560;9.940;2023-04-02T12:30:17;10.20;1.00
4673;DHT22;61885;53.560;9.940;2023-04-02T12:32:47;10.80;1.00
4673;DHT22;61885;53.560;9.940;2023-04-02T12:35:28;10.80;1.00
4673;DHT22;61885;53.560;9.940;2023-04-02T12:37:58;11.40;1.00
4673;DHT22;61885;53.560;9.940;2023-04-02T12:40:31;11.90;1.00
4673;DHT22;61885;53.560;9.940;2023-04-02T12:43:03;12.10;1.00
4673;DHT22;61885;53.560;9.940;2023-04-02T12:45:35;11.50;1.00
4673;DHT22;61885;53.560;9.940;2023-04-02T12:48:05;11.90;1.00
4673;DHT22;61885;53.560;9.940;2023-04-02T12:50:39;11.90;1.00
4673;DHT22;61885;53.560;9.940;2023-04-02T12:53:18;12.50;1.00
4673;DHT22;61885;53.560;9.940;2023-04-02T12:55:49;12.20;1.00
4673;DHT22;61885;53.560;9.940;2023-04-02T12:58:29;12.60;1.00
4673;DHT22;61885;53.560;9.940;2023-04-02T13:01:17;12.90;1.00
4673;DHT22;61885;53.560;9.940;2023-04-02T13:04:04;12.50;1.00
4673;DHT22;61885;53.560;9.940;2023-04-02T13:06:34;12.40;1.00
4673;DHT22;61885;53.560;9.940;2023-04-02T13:09:24;12.40;1.00
4673;DHT22;61885;53.560;9.940;2023-04-02T13:11:57;11.80;1.00
4673;DHT22;61885;53.560;9.940;2023-04-02T13:14:29;12.00;1.00
4673;DHT22;61885;53.560;9.940;2023-04-02T13:17:34;12.20;1.00
4673;DHT22;61885;53.560;9.940;2023-04-02T13:19:53;12.20;1.00
4673;DHT22;61885;53.560;9.940;2023-04-02T13:22:30;12.20;1.00
4673;DHT22;61885;53.560;9.940;2023-04-02T13:25:00;12.00;1.00
4673;DHT22;61885;53.560;9.940;2023-04-02T13:27:31;12.80;1.00
4673;DHT22;61885;53.560;9.940;2023-04-02T13:30:07;13.40;1.00
4673;DHT22;61885;53.560;9.940;2023-04-02T13:32:41;12.50;1.00
4673;DHT22;61885;53.560;9.940;2023-04-02T13:35:13;12.00;1.00
4673;DHT22;61885;53.560;9.940;2023-04-02T13:37:45;11.90;1.00
4673;DHT22;61885;53.560;9.940;2023-04-02T13:40:16;12.40;1.00
4673;DHT22;61885;53.560;9.940;2023-04-02T13:42:48;12.90;1.00
4673;DHT22;61885;53.560;9.940;2023-04-02T13:45:25;13.60;1.00
4673;DHT22;61885;53.560;9.940;2023-04-02T13:47:58;13.10;1.00
4673;DHT22;61885;53.560;9.940;2023-04-02T13:50:32;12.10;1.00
4673;DHT22;61885;53.560;9.940;2023-04-02T13:53:06;11.10;1.00
4673;DHT22;61885;53.560;9.940;2023-04-02T13:55:39;11.20;1.00
4673;DHT22;61885;53.560;9.940;2023-04-02T13:58:10;11.30;1.00
4673;DHT22;61885;53.560;9.940;2023-04-02T14:00:40;11.80;1.00
4673;DHT22;61885;53.560;9.940;2023-04-02T14:03:14;11.90;1.00
4673;DHT22;61885;53.560;9.940;2023-04-02T14:05:55;11.50;1.00
4673;DHT22;61885;53.560;9.940;2023-04-02T14:08:39;11.40;1.00
4673;DHT22;61885;53.560;9.940;2023-04-02T14:14:24;11.20;1.00
4673;DHT22;61885;53.560;9.940;2023-04-02T14:17:10;11.60;1.00
4673;DHT22;61885;53.560;9.940;2023-04-02T14:20:05;11.30;1.00
4673;DHT22;61885;53.560;9.940;2023-04-02T14:22:50;10.90;1.00
4673;DHT22;61885;53.560;9.940;2023-04-02T14:25:30;11.10;1.00
4673;DHT22;61885;53.560;9.940;2023-04-02T14:28:06;11.70;1.00
4673;DHT22;61885;53.560;9.940;2023-04-02T14:30:49;11.60;1.00
4673;DHT22;61885;53.560;9.940;2023-04-02T14:33:31;11.50;1.00
4673;DHT22;61885;53.560;9.940;2023-04-02T14:36:15;10.80;1.00
4673;DHT22;61885;53.560;9.940;2023-04-02T14:38:53;11.90;1.00
4673;DHT22;61885;53.560;9.940;2023-04-02T14:41:29;12.00;1.00
4673;DHT22;61885;53.560;9.940;2023-04-02T14:44:04;12.10;1.00
4673;DHT22;61885;53.560;9.940;2023-04-02T14:46:36;11.80;1.00
4673;DHT22;61885;53.560;9.940;2023-04-02T14:49:18;11.50;1.00
4673;DHT22;61885;53.560;9.940;2023-04-02T14:51:57;11.60;1.00
4673;DHT22;61885;53.560;9.940;2023-04-02T14:54:32;12.10;1.00
4673;DHT22;61885;53.560;9.940;2023-04-02T14:57:08;12.40;1.00
4673;DHT22;61885;53.560;9.940;2023-04-02T14:59:51;12.30;1.00
4673;DHT22;61885;53.560;9.940;2023-04-02T15:02:28;11.50;1.00
4673;DHT22;61885;53.560;9.940;2023-04-02T15:05:09;11.50;1.00
4673;DHT22;61885;53.560;9.940;2023-04-02T15:07:48;12.10;1.00
4673;DHT22;61885;53.560;9.940;2023-04-02T15:10:24;12.20;1.00
4673;DHT22;61885;53.560;9.940;2023-04-02T15:12:58;11.10;1.00
4673;DHT22;61885;53.560;9.940;2023-04-02T15:15:39;11.40;1.00
4673;DHT22;61885;53.560;9.940;2023-04-02T15:18:18;12.00;1.00
4673;DHT22;61885;53.560;9.940;2023-04-02T15:20:56;12.20;1.00
4673;DHT22;61885;53.560;9.940;2023-04-02T15:23:41;13.20;1.00
4673;DHT22;61885;53.560;9.940;2023-04-02T15:26:18;13.30;1.00
4673;DHT22;61885;53.560;9.940;2023-04-02T15:29:02;11.90;1.00
4673;DHT22;61885;53.560;9.940;2023-04-02T15:31:36;12.00;1.00
4673;DHT22;61885;53.560;9.940;2023-04-02T15:34:16;12.20;1.00
4673;DHT22;61885;53.560;9.940;2023-04-02T15:37:06;12.60;1.00
4673;DHT22;61885;53.560;9.940;2023-04-02T15:39:45;12.60;1.00
4673;DHT22;61885;53.560;9.940;2023-04-02T15:42:22;13.30;1.00
4673;DHT22;61885;53.560;9.940;2023-04-02T15:45:28;13.60;1.00
4673;DHT22;61885;53.560;9.940;2023-04-02T15:48:22;15.10;1.00
4673;DHT22;61885;53.560;9.940;2023-04-02T15:51:08;13.70;1.00
4673;DHT22;61885;53.560;9.940;2023-04-02T15:53:54;11.80;1.00
4673;DHT22;61885;53.560;9.940;2023-04-02T15:56:38;11.70;1.00
4673;DHT22;61885;53.560;9.940;2023-04-02T15:59:29;11.80;1.00
4673;DHT22;61885;53.560;9.940;2023-04-02T16:02:20;11.10;1.00
4673;DHT22;61885;53.560;9.940;2023-04-02T16:05:00;10.50;1.00
4673;DHT22;61885;53.560;9.940;2023-04-02T16:07:57;10.40;1.00
4673;DHT22;61885;53.560;9.940;2023-04-02T16:10:35;11.50;1.00
4673;DHT22;61885;53.560;9.940;2023-04-02T16:13:14;11.30;1.00
4673;DHT22;61885;53.560;9.940;2023-04-02T16:15:49;10.50;1.00
4673;DHT22;61885;53.560;9.940;2023-04-02T16:18:29;12.30;1.00
4673;DHT22;61885;53.560;9.940;2023-04-02T16:21:02;13.90;1.00
4673;DHT22;61885;53.560;9.940;2023-04-02T16:23:34;13.70;1.00
4673;DHT22;61885;53.560;9.940;2023-04-02T16:26:31;13.20;1.00
4673;DHT22;61885;53.560;9.940;2023-04-02T16:29:17;11.80;1.00
4673;DHT22;61885;53.560;9.940;2023-04-02T16:31:57;11.00;1.00
4673;DHT22;61885;53.560;9.940;2023-04-02T16:34:38;11.50;1.00
4673;DHT22;61885;53.560;9.940;2023-04-02T16:37:15;12.70;1.00
4673;DHT22;61885;53.560;9.940;2023-04-02T16:40:00;12.60;1.00
4673;DHT22;61885;53.560;9.940;2023-04-02T16:42:40;12.60;1.00
4673;DHT22;61885;53.560;9.940;2023-04-02T16:45:27;12.30;1.00
4673;DHT22;61885;53.560;9.940;2023-04-02T16:48:10;12.80;1.00
4673;DHT22;61885;53.560;9.940;2023-04-02T16:50:48;13.40;1.00
4673;DHT22;61885;53.560;9.940;2023-04-02T16:53:29;12.80;1.00
4673;DHT22;61885;53.560;9.940;2023-04-02T16:56:22;12.20;1.00
4673;DHT22;61885;53.560;9.940;2023-04-02T16:59:02;12.10;1.00
4673;DHT22;61885;53.560;9.940;2023-04-02T17:01:48;12.50;1.00
4673;DHT22;61885;53.560;9.940;2023-04-02T17:04:45;12.50;1.00
4673;DHT22;61885;53.560;9.940;2023-04-02T17:07:34;12.20;1.00
4673;DHT22;61885;53.560;9.940;2023-04-02T17:10:24;11.30;1.00
4673;DHT22;61885;53.560;9.940;2023-04-02T17:13:02;11.40;1.00
4673;DHT22;61885;53.560;9.940;2023-04-02T17:15:36;12.20;1.00
4673;DHT22;61885;53.560;9.940;2023-04-02T17:18:17;11.70;1.00
4673;DHT22;61885;53.560;9.940;2023-04-02T17:20:50;11.40;1.00